Time;durP1;ratioP1;P1;durP2;ratioP2;P2;SDS_P1;SDS_P2;PMS_P1;PMS_P2;Temp;Humidity;BMP_temperature;BMP_pressure;BME280_temperature;BME280_humidity;BME280_pressure;Samples;Min_cycle;Max_cycle;Signal;HPM_P1;HPM_P2
2021/06/15 00:08:46;;;;;;;;;;;;;;;;;;;;;
2021/06/15 00:27:03;;;;;;;;;;;;;;;;;;;;;
2021/06/15 00:31:11;;;;;;;11.18;4.20;;;;;;;18.53;50.34;100396.06;1798273;107;26042;-84
2021/06/15 00:35:53;;;;;;;;;;;;;;;;;;;;;
2021/06/15 00:44:25;;;;;;;;;;;;;;;;;;;;;
2021/06/15 00:48:08;;;;;;;9.40;5.05;;;;;;;18.28;50.87;100394.50;1695559;112;25936;-85
2021/06/15 00:52:10;;;;;;;10.03;4.62;;;;;;;18.22;51.03;100390.13;1681257;114;26060;-85
2021/06/15 00:55:58;;;;;;;5.45;4.25;;;;;;;18.23;51.35;100394.55;1662754;116;25429;-85
2021/06/15 00:59:47;;;;;;;;;;;;;;;;;;;;;
2021/06/15 01:03:20;;;;;;;9.28;5.67;;;;;;;18.12;51.57;100388.45;1689469;115;26034;-86
2021/06/15 01:06:59;;;;;;;7.20;4.72;;;;;;;18.10;51.63;100389.80;1689463;115;25963;-84
2021/06/15 01:11:36;;;;;;;;;;;;;;;;;;;;;
2021/06/15 01:16:22;;;;;;;7.00;4.53;;;;;;;18.11;51.64;100377.47;1769014;108;25901;-86
2021/06/15 01:20:28;;;;;;;7.62;4.47;;;;;;;18.01;51.66;100378.43;1821122;108;25918;-85
2021/06/15 01:24:44;;;;;;;8.98;4.67;;;;;;;17.93;51.87;100374.08;1707400;115;25844;-86
2021/06/15 01:29:09;;;;;;;;;;;;;;;;;;;;;
2021/06/15 01:33:08;;;;;;;6.05;3.77;;;;;;;17.84;51.75;100365.35;1762815;111;25836;-84
2021/06/15 01:37:25;;;;;;;;;;;;;;;;;;;;;
2021/06/15 01:41:40;;;;;;;7.80;4.80;;;;;;;17.80;51.78;100363.63;1673144;116;25969;-84
2021/06/15 01:46:02;;;;;;;8.63;4.40;;;;;;;17.77;52.21;100369.78;1684143;115;25796;-79
2021/06/15 01:50:31;;;;;;;;;;;;;;;;;;;;;
2021/06/15 01:54:23;;;;;;;;;;;;;;;;;;;;;
2021/06/15 02:02:46;;;;;;;11.20;4.33;;;;;;;17.71;52.14;100379.01;1732510;112;26636;-86
2021/06/15 02:06:27;;;;;;;8.93;4.65;;;;;;;17.76;52.17;100385.59;1676449;115;25950;-87
2021/06/15 02:14:52;;;;;;;10.55;4.50;;;;;;;17.67;51.91;100390.47;1648732;119;25895;-85
2021/06/15 02:19:15;;;;;;;6.45;4.85;;;;;;;17.61;51.85;100389.17;1694576;116;26181;-87
2021/06/15 02:31:41;;;;;;;;;;;;;;;;;;;;;
2021/06/15 02:36:49;;;;;;;6.75;4.03;;;;;;;17.65;51.67;100379.04;1731263;111;25863;-85
2021/06/15 02:40:28;;;;;;;6.58;3.87;;;;;;;17.65;51.65;100377.31;1689174;112;25940;-86
2021/06/15 02:44:33;;;;;;;;;;;;;;;;;;;;;
2021/06/15 02:48:47;;;;;;;;;;;;;;;;;;;;;
2021/06/15 03:04:44;;;;;;;;;;;;;;;;;;;;;
2021/06/15 03:08:13;;;;;;;8.73;3.27;;;;;;;17.64;51.45;100393.12;1695253;113;26020;-90
2021/06/15 03:12:07;;;;;;;7.62;3.52;;;;;;;17.62;51.45;100392.27;1672840;114;25918;-89
2021/06/15 03:16:06;;;;;;;6.83;4.25;;;;;;;17.61;51.41;100394.00;1661667;117;25380;-85
2021/06/15 03:20:53;;;;;;;8.75;4.25;;;;;;;17.73;51.38;100388.25;1674139;116;25957;-86
2021/06/15 03:24:53;;;;;;;;;;;;;;;17.81;51.27;100400.52;1665263;115;25776;-84
2021/06/15 03:28:47;;;;;;;7.95;4.00;;;;;;;17.93;50.94;100399.14;1688128;116;25966;-85
2021/06/15 03:32:24;;;;;;;8.38;3.65;;;;;;;17.99;50.80;100400.88;1708501;113;25878;-84
2021/06/15 03:36:28;;;;;;;4.28;3.30;;;;;;;18.03;50.80;100405.23;1685584;114;25875;-83
2021/06/15 04:37:25;;;;;;;7.78;4.95;;;;;;;20.03;46.64;100411.53;2462809;76;25406;-85
2021/06/15 04:46:04;;;;;;;7.03;4.75;;;;;;;19.97;46.35;100412.06;2502638;77;25583;-87
2021/06/15 04:50:32;;;;;;;9.00;5.62;;;;;;;20.00;46.62;100413.34;2467809;79;25750;-84
2021/06/15 04:54:39;;;;;;;;;;;;;;;;;;;;;
2021/06/15 05:02:19;;;;;;;9.55;5.00;;;;;;;20.13;46.58;100414.92;2345849;81;25780;-80
2021/06/15 05:14:14;;;;;;;9.60;5.20;;;;;;;20.61;46.67;100424.33;2167489;89;25703;-85
2021/06/15 05:23:29;;;;;;;7.92;2.90;;;;;;;20.96;46.22;100436.11;2052412;92;26545;-85
2021/06/15 05:30:57;;;;;;;7.17;4.50;;;;;;;21.41;46.20;100434.38;1980200;98;25824;-89
2021/06/15 05:40:04;;;;;;;6.35;4.15;;;;;;;21.83;45.60;100439.67;1801793;107;26007;-90
2021/06/15 06:00:38;;;;;;;8.93;5.45;;;;;;;22.52;44.86;100446.55;1750220;111;25996;-87
2021/06/15 06:05:03;;;;;;;13.20;5.70;;;;;;;22.76;44.12;100451.70;1733307;110;26132;-87
2021/06/15 06:09:29;;;;;;;;;;;;;;;;;;;;;
2021/06/15 06:12:53;;;;;;;7.35;5.33;;;;;;;23.53;43.68;100455.40;1760019;107;26132;-88
2021/06/15 06:20:09;;;;;;;7.42;4.85;;;;;;;24.21;42.32;100458.27;1683422;113;25871;-88
2021/06/15 06:23:43;;;;;;;13.37;4.40;;;;;;;24.39;42.46;100449.27;1730279;112;25954;-85
2021/06/15 06:27:21;;;;;;;;;;;;;;;24.63;41.87;100451.16;1732061;112;25967;-79
2021/06/15 06:31:04;;;;;;;5.35;4.87;;;;;;;24.87;41.27;100452.58;1692942;114;25977;-80
2021/06/15 06:35:44;;;;;;;11.88;5.08;;;;;;;25.13;40.83;100457.92;1706990;112;33221;-87
2021/06/15 06:41:29;;;;;;;;;;;;;;;;;;;;;
2021/06/15 06:45:38;;;;;;;7.65;3.98;;;;;;;25.43;39.83;100466.63;1693118;113;25986;-87
2021/06/15 06:55:33;;;;;;;8.55;5.60;;;;;;;25.88;38.98;100473.00;1673570;114;25949;-83
2021/06/15 07:00:09;;;;;;;;;;;;;;;;;;;;;
2021/06/15 07:16:13;;;;;;;12.55;5.45;;;;;;;26.83;37.83;100462.06;1650708;117;26004;-86
2021/06/15 07:19:41;;;;;;;11.95;4.85;;;;;;;27.21;36.79;100451.53;1685046;112;26196;-86
2021/06/15 07:23:22;;;;;;;5.00;4.37;;;;;;;27.33;35.72;100455.45;1736290;112;25831;-86
2021/06/15 07:30:25;;;;;;;5.42;4.65;;;;;;;27.41;35.25;100464.51;1776587;108;26150;-84
2021/06/15 07:42:39;;;;;;;7.00;4.60;;;;;;;27.68;35.08;100455.21;1720299;112;25888;-83
2021/06/15 07:46:29;;;;;;;6.08;4.20;;;;;;;27.68;34.90;100458.36;1746189;110;25956;-82
2021/06/15 07:50:22;;;;;;;11.80;5.67;;;;;;;27.77;35.02;100453.45;1742159;112;26290;-83
2021/06/15 08:06:13;;;;;;;7.08;4.40;;;;;;;28.44;34.82;100459.24;1777915;110;25963;-84
2021/06/15 08:09:34;;;;;;;8.65;4.72;;;;;;;28.70;33.03;100451.25;1782443;110;25637;-90
2021/06/15 08:12:57;;;;;;;8.80;4.10;;;;;;;28.76;33.17;100454.10;1785146;110;26520;-88
2021/06/15 08:16:23;;;;;;;6.25;4.80;;;;;;;28.80;33.53;100446.28;1760587;110;26050;-87
2021/06/15 08:19:47;;;;;;;9.35;5.00;;;;;;;28.63;31.91;100449.34;1801727;108;25839;-86
2021/06/15 08:23:09;;;;;;;10.55;4.37;;;;;;;28.58;32.23;100459.42;1801599;109;25993;-87
2021/06/15 08:26:32;;;;;;;7.85;3.87;;;;;;;28.90;32.55;100447.55;1832284;106;25931;-84
2021/06/15 08:29:53;;;;;;;15.18;5.72;;;;;;;29.13;32.65;100450.42;1815176;105;26105;-87
2021/06/15 08:33:17;;;;;;;14.75;5.10;;;;;;;29.30;32.64;100450.39;1924811;99;25822;-84
2021/06/15 08:36:41;;;;;;;6.80;4.42;;;;;;;29.50;31.69;100447.98;1940770;100;25805;-84
2021/06/15 08:40:18;;;;;;;7.17;4.50;;;;;;;29.80;31.51;100446.81;1941319;98;26182;-91
2021/06/15 08:44:05;;;;;;;;;;;;;;;30.13;30.63;100443.16;1937223;98;25894;-81
2021/06/15 08:47:46;;;;;;;11.97;4.73;;;;;;;30.43;30.79;100444.61;1921753;100;25767;-83
2021/06/15 08:51:28;;;;;;;10.50;4.97;;;;;;;30.79;30.59;100450.17;1878781;103;25808;-80
2021/06/15 08:55:04;;;;;;;14.65;4.20;;;;;;;31.30;30.29;100446.63;1960886;98;25712;-81
2021/06/15 08:59:26;;;;;;;6.83;4.85;;;;;;;31.68;29.63;100447.42;1965775;98;25294;-80
2021/06/15 09:03:19;;;;;;;13.30;5.25;;;;;;;32.03;29.19;100453.76;1960783;98;25783;-83
2021/06/15 09:07:20;;;;;;;7.87;5.03;;;;;;;32.27;28.62;100456.71;1973973;97;25840;-81
2021/06/15 09:10:55;;;;;;;11.20;5.28;;;;;;;32.49;28.17;100451.64;1910275;100;25553;-79
2021/06/15 09:15:03;;;;;;;10.60;5.15;;;;;;;32.43;28.89;100454.28;1850688;103;26010;-77
2021/06/15 09:23:05;;;;;;;14.85;6.22;;;;;;;32.37;28.39;100454.65;1770240;105;25646;-83
2021/06/15 09:27:16;;;;;;;9.53;5.08;;;;;;;32.22;28.05;100451.11;1768065;110;26944;-83
2021/06/15 09:35:24;;;;;;;7.05;4.90;;;;;;;31.90;28.65;100449.66;1718952;113;25685;-81
2021/06/15 09:39:33;;;;;;;;;;;;;;;;;;;;;
2021/06/15 09:43:17;;;;;;;9.68;4.78;;;;;;;32.02;28.85;100446.64;1719121;113;25963;-82
2021/06/15 09:47:17;;;;;;;8.28;4.25;;;;;;;31.92;28.41;100442.32;1722638;111;25836;-82
2021/06/15 09:50:49;;;;;;;7.55;4.90;;;;;;;32.10;27.59;100446.54;1721317;113;26130;-82
2021/06/15 09:54:21;;;;;;;16.25;5.33;;;;;;;32.25;28.06;100444.66;1720971;112;26080;-81
2021/06/15 10:03:21;;;;;;;8.40;4.25;;;;;;;31.84;28.33;100431.14;1698567;114;26114;-84
2021/06/15 10:11:27;;;;;;;8.00;4.83;;;;;;;32.59;28.05;100426.25;1683138;114;25874;-84
2021/06/15 10:15:31;;;;;;;15.32;5.22;;;;;;;32.89;27.48;100425.98;1768976;108;25930;-83
2021/06/15 10:19:23;;;;;;;7.78;4.40;;;;;;;32.81;26.59;100423.83;1815380;107;25981;-84
2021/06/15 10:23:09;;;;;;;5.12;4.33;;;;;;;32.62;25.73;100406.66;1729835;111;26058;-83
2021/06/15 10:35:37;;;;;;;12.30;3.70;;;;;;;30.53;26.32;100406.80;1732861;111;25870;-85
2021/06/15 10:38:59;;;;;;;5.37;3.77;;;;;;;30.76;26.18;100402.77;1781747;109;26006;-79
2021/06/15 10:42:35;;;;;;;6.17;3.87;;;;;;;31.08;25.97;100399.93;1802286;107;26516;-78
2021/06/15 10:46:19;;;;;;;9.50;4.15;;;;;;;31.02;26.25;100401.20;1828177;106;25844;-82
2021/06/15 10:50:10;;;;;;;6.55;3.95;;;;;;;31.33;26.30;100393.94;1847476;104;25885;-78
2021/06/15 10:54:17;;;;;;;7.53;4.87;;;;;;;31.58;26.81;100396.42;1881081;102;25949;-90
2021/06/15 10:58:14;;;;;;;9.53;4.60;;;;;;;31.63;26.96;100388.92;1849678;104;25568;-80
2021/06/15 11:01:38;;;;;;;5.05;3.83;;;;;;;31.77;26.59;100392.94;1902060;101;25742;-78
2021/06/15 11:05:44;;;;;;;7.30;4.42;;;;;;;31.77;26.50;100383.50;1907132;102;25834;-79
2021/06/15 11:09:43;;;;;;;;;;;;;;;;;;;;;
2021/06/15 11:13:08;;;;;;;7.85;4.00;;;;;;;31.95;25.87;100375.58;1910115;101;25980;-83
2021/06/15 11:17:04;;;;;;;9.98;4.05;;;;;;;31.72;26.42;100379.73;1857991;105;25820;-85
2021/06/15 11:21:03;;;;;;;5.50;3.17;;;;;;;31.48;26.67;100380.83;1853125;105;26020;-85
2021/06/15 11:25:03;;;;;;;9.25;3.77;;;;;;;31.57;26.74;100370.44;1873669;104;25960;-80
2021/06/15 11:29:00;;;;;;;9.98;4.05;;;;;;;31.74;26.87;100365.69;1872464;103;26068;-82
2021/06/15 11:33:26;;;;;;;;;;;;;;;;;;;;;
2021/06/15 11:36:38;;;;;;;4.40;3.40;;;;;;;31.19;27.23;100358.41;1840594;102;25553;-86
2021/06/15 11:40:42;;;;;;;8.48;4.03;;;;;;;30.97;27.42;100350.78;1829035;106;25904;-84
2021/06/15 11:45:13;;;;;;;7.20;3.47;;;;;;;31.17;27.40;100350.03;1833762;105;26086;-83
2021/06/15 11:48:45;;;;;;;3.77;3.40;;;;;;;30.84;27.23;100343.08;1854337;104;26556;-81
2021/06/15 12:00:19;;;;;;;4.42;3.65;;;;;;;30.30;27.91;100340.03;1763509;109;25920;-84
2021/06/15 12:04:08;;;;;;;5.87;3.25;;;;;;;30.42;28.09;100331.25;1765709;110;25463;-84
2021/06/15 12:07:47;;;;;;;6.45;3.50;;;;;;;30.99;27.70;100330.03;1764858;108;25912;-80
2021/06/15 12:11:33;;;;;;;4.50;3.10;;;;;;;31.44;26.72;100330.80;1859725;104;26002;-82
2021/06/15 12:14:59;;;;;;;7.42;3.27;;;;;;;31.79;25.96;100337.06;1872583;103;25584;-80
2021/06/15 12:22:24;;;;;;;5.58;2.90;;;;;;;31.96;25.17;100332.84;1930120;100;25850;-80
2021/06/15 12:25:57;;;;;;;3.20;2.90;;;;;;;32.34;24.69;100329.39;1926306;99;25817;-83
2021/06/15 12:29:28;;;;;;;9.25;3.83;;;;;;;32.68;24.28;100329.30;1921918;101;25786;-80
2021/06/15 12:32:55;;;;;;;4.40;3.12;;;;;;;32.78;23.89;100324.13;1942882;98;25629;-88
2021/06/15 12:36:23;;;;;;;6.45;3.02;;;;;;;32.78;24.28;100326.84;1909822;101;25930;-84
2021/06/15 12:39:52;;;;;;;3.75;3.45;;;;;;;32.95;24.46;100323.44;1901473;100;25859;-82
2021/06/15 12:43:27;;;;;;;6.05;3.40;;;;;;;33.01;24.17;100317.15;1900903;102;25865;-84
2021/06/15 12:47:06;;;;;;;7.50;3.33;;;;;;;32.95;24.33;100321.59;1868066;103;26205;-87
2021/06/15 12:50:34;;;;;;;6.50;2.87;;;;;;;33.03;24.43;100317.02;1889271;103;25862;-80
2021/06/15 12:54:23;;;;;;;4.12;3.12;;;;;;;33.06;24.56;100311.41;1861134;103;25517;-77
2021/06/15 12:58:17;;;;;;;;;;;;;;;;;;;;;
2021/06/15 13:01:54;;;;;;;7.30;3.17;;;;;;;33.15;24.50;100307.56;1905848;100;25867;-80
2021/06/15 13:05:27;;;;;;;3.90;2.90;;;;;;;33.15;24.45;100309.41;1907514;100;25893;-79
2021/06/15 13:09:23;;;;;;;6.50;3.65;;;;;;;33.31;24.35;100313.19;1866988;102;26034;-76
2021/06/15 13:12:56;;;;;;;10.23;3.22;;;;;;;33.32;24.34;100310.39;1805964;105;25829;-77
2021/06/15 13:16:53;;;;;;;5.00;3.15;;;;;;;33.30;24.06;100305.58;1837840;105;25786;-77
2021/06/15 13:20:29;;;;;;;4.22;3.20;;;;;;;33.42;23.66;100304.33;1868572;103;25908;-80
2021/06/15 13:24:10;;;;;;;4.83;2.37;;;;;;;33.32;23.76;100300.08;1973658;95;26664;-81
2021/06/15 13:27:51;;;;;;;4.85;2.50;;;;;;;33.24;23.93;100300.61;1978124;96;26379;-79
2021/06/15 13:31:45;;;;;;;5.80;2.85;;;;;;;33.02;23.54;100288.30;1978028;96;25770;-82
2021/06/15 13:36:03;;;;;;;6.80;2.90;;;;;;;32.76;23.07;100281.52;2014546;96;26035;-81
2021/06/15 13:39:53;;;;;;;4.35;3.30;;;;;;;32.54;23.45;100279.48;2014488;96;25921;-82
2021/06/15 13:43:38;;;;;;;3.08;2.77;;;;;;;32.27;23.67;100281.36;1904990;101;25366;-81
2021/06/15 13:47:29;;;;;;;4.37;2.87;;;;;;;32.03;24.38;100283.86;1869481;104;25892;-80
2021/06/15 13:50:57;;;;;;;5.08;2.98;;;;;;;31.81;24.76;100279.88;1855095;104;25878;-80
2021/06/15 13:54:24;;;;;;;9.63;2.42;;;;;;;31.48;25.20;100279.78;1855201;104;26068;-79
2021/06/15 13:58:19;;;;;;;3.92;2.80;;;;;;;31.44;24.83;100274.70;1832562;104;25850;-82
2021/06/15 14:01:59;;;;;;;8.75;2.55;;;;;;;31.36;25.01;100279.25;1849081;105;25917;-80
2021/06/15 14:05:34;;;;;;;;;;;;;;;;;;;;;
2021/06/15 14:09:02;;;;;;;5.65;3.77;;;;;;;31.36;25.19;100275.70;1807208;107;25507;-79
2021/06/15 14:12:42;;;;;;;3.80;3.27;;;;;;;31.37;24.98;100266.16;1790786;108;25958;-82
2021/06/15 14:16:13;;;;;;;3.90;3.20;;;;;;;31.09;24.92;100266.19;1758747;110;25811;-83
2021/06/15 14:19:35;;;;;;;5.72;3.05;;;;;;;30.82;25.43;100269.66;1771497;107;26962;-82
2021/06/15 14:22:59;;;;;;;4.60;2.85;;;;;;;30.69;25.48;100268.65;1813477;105;25787;-82
2021/06/15 14:29:56;;;;;;;4.33;2.65;;;;;;;30.35;26.21;100255.92;1924564;100;25929;-78
2021/06/15 14:33:27;;;;;;;4.58;3.52;;;;;;;30.39;26.47;100255.25;1889393;102;25947;-80
2021/06/15 14:36:54;;;;;;;3.60;3.30;;;;;;;30.46;26.54;100257.47;1851846;105;25812;-89
2021/06/15 14:40:22;;;;;;;7.65;3.30;;;;;;;30.49;26.77;100262.66;1889268;101;25771;-87
2021/06/15 14:43:55;;;;;;;8.03;4.08;;;;;;;30.40;26.98;100251.11;1887365;102;26175;-88
2021/06/15 14:47:21;;;;;;;5.22;3.80;;;;;;;30.37;26.90;100247.27;1937278;98;25955;-91
2021/06/15 14:50:49;;;;;;;7.20;3.55;;;;;;;30.30;26.86;100245.91;1958818;98;25810;-81
2021/06/15 14:54:13;;;;;;;3.87;3.20;;;;;;;30.05;26.95;100231.23;1958751;99;25980;-82
2021/06/15 14:57:42;;;;;;;6.85;3.60;;;;;;;29.82;27.16;100233.06;1939047;99;25813;-83
2021/06/15 15:01:32;;;;;;;4.67;3.20;;;;;;;29.77;27.58;100228.45;1897276;100;25880;-82
2021/06/15 15:04:57;;;;;;;6.10;3.83;;;;;;;29.89;27.72;100226.38;1878487;102;25894;-85
2021/06/15 15:08:27;;;;;;;6.58;4.40;;;;;;;29.69;27.94;100221.30;1848517;103;26202;-83
2021/06/15 15:12:10;;;;;;;3.95;3.30;;;;;;;29.69;28.57;100221.30;1870827;102;26062;-90
2021/06/15 15:15:55;;;;;;;4.62;4.05;;;;;;;29.56;28.76;100212.56;1929445;101;26301;-90
2021/06/15 15:19:49;;;;;;;5.42;3.45;;;;;;;29.58;29.19;100218.73;1943991;100;26051;-82
2021/06/15 15:23:16;;;;;;;9.23;3.80;;;;;;;29.60;29.11;100211.50;1944680;99;25831;-91
2021/06/15 15:26:44;;;;;;;5.35;3.60;;;;;;;29.54;29.23;100214.98;1939797;99;26012;-83
2021/06/15 15:30:25;;;;;;;6.30;3.80;;;;;;;29.46;29.09;100205.14;1883563;101;25855;-89
2021/06/15 15:34:04;;;;;;;8.65;3.67;;;;;;;29.32;29.28;100203.25;1911609;101;25901;-87
2021/06/15 15:37:48;;;;;;;4.20;3.80;;;;;;;29.16;29.57;100193.40;1910786;102;25956;-82
2021/06/15 15:41:20;;;;;;;5.10;4.03;;;;;;;29.24;29.47;100198.80;1902753;102;25906;-82
2021/06/15 15:44:55;;;;;;;11.50;3.90;;;;;;;29.05;29.37;100196.28;1902597;101;26442;-81
2021/06/15 15:48:49;;;;;;;7.00;3.70;;;;;;;28.90;29.75;100188.11;2035249;94;25982;-86
2021/06/15 15:52:18;;;;;;;6.53;4.60;;;;;;;28.90;29.77;100189.92;2047682;93;25856;-83
2021/06/15 15:56:12;;;;;;;;;;;;;;;;;;;;;
2021/06/15 15:59:29;;;;;;;4.37;3.72;;;;;;;28.79;30.07;100189.63;2049861;91;26445;-82
2021/06/15 16:03:06;;;;;;;4.78;3.77;;;;;;;28.54;30.10;100195.00;2191600;88;25756;-81
2021/06/15 16:07:04;;;;;;;5.05;3.58;;;;;;;28.42;30.75;100185.81;2191366;84;25829;-81
2021/06/15 16:10:33;;;;;;;9.63;3.70;;;;;;;28.39;31.06;100188.66;2290822;83;25873;-86
2021/06/15 16:14:08;;;;;;;7.80;4.08;;;;;;;28.38;31.27;100193.57;2307114;83;25807;-82
2021/06/15 16:17:40;;;;;;;5.58;3.98;;;;;;;28.39;31.42;100194.02;2300030;84;25753;-82
2021/06/15 16:21:12;;;;;;;5.35;4.22;;;;;;;28.44;31.48;100190.61;2305593;82;26522;-87
2021/06/15 16:24:38;;;;;;;4.72;3.75;;;;;;;28.50;31.49;100188.08;2296631;83;25749;-87
2021/06/15 16:28:10;;;;;;;6.90;3.55;;;;;;;28.40;31.61;100189.04;2308185;84;25757;-83
2021/06/15 16:31:42;;;;;;;6.75;4.12;;;;;;;28.30;31.64;100192.27;2296548;83;25673;-83
2021/06/15 16:35:27;;;;;;;6.90;3.92;;;;;;;28.27;31.84;100194.62;2276550;84;25848;-83
2021/06/15 16:39:08;;;;;;;3.50;3.20;;;;;;;28.20;31.97;100189.20;2277894;84;25721;-86
2021/06/15 16:42:44;;;;;;;9.25;3.60;;;;;;;28.12;32.07;100192.77;2282986;84;26186;-83
2021/06/15 16:46:14;;;;;;;3.33;3.02;;;;;;;28.04;32.22;100200.32;2385174;81;25756;-81
2021/06/15 16:50:01;;;;;;;7.95;4.75;;;;;;;27.98;32.25;100205.07;2367976;82;25648;-81
2021/06/15 16:53:30;;;;;;;7.60;3.87;;;;;;;27.91;32.47;100194.27;2333349;81;25723;-82
2021/06/15 16:57:23;;;;;;;4.58;3.27;;;;;;;27.89;33.01;100193.95;2382129;81;25710;-80
2021/06/15 17:00:52;;;;;;;10.85;3.80;;;;;;;27.87;33.22;100192.67;2378734;81;25645;-82
2021/06/15 17:04:35;;;;;;;5.28;3.55;;;;;;;27.87;33.61;100195.34;2347985;82;25765;-89
2021/06/15 17:08:22;;;;;;;;;;;;;;;;;;;;;
2021/06/15 17:12:04;;;;;;;4.92;3.87;;;;;;;27.77;33.69;100180.69;2376516;81;25970;-84
2021/06/15 17:15:35;;;;;;;5.20;3.37;;;;;;;27.71;33.73;100181.86;2171033;88;25708;-85
2021/06/15 17:19:03;;;;;;;4.87;4.15;;;;;;;27.63;33.91;100188.05;2123426;91;25693;-85
2021/06/15 17:22:32;;;;;;;5.53;3.90;;;;;;;27.53;33.97;100183.63;2126172;91;26062;-81
2021/06/15 17:26:01;;;;;;;7.62;3.80;;;;;;;27.49;34.01;100185.20;2148018;90;25796;-82
2021/06/15 17:33:26;;;;;;;6.97;4.58;;;;;;;27.36;34.14;100186.75;2015726;96;25887;-92
2021/06/15 17:37:05;;;;;;;7.00;3.90;;;;;;;27.35;34.26;100175.66;1979489;99;26150;-82
2021/06/15 17:40:49;;;;;;;8.90;4.62;;;;;;;27.32;34.34;100176.67;1977158;99;25901;-83
2021/06/15 17:44:31;;;;;;;;;;;;;;;;;;;;;
2021/06/15 17:47:59;;;;;;;;;;;;;;;27.18;34.61;100173.33;1902376;102;25818;-84
2021/06/15 17:51:26;;;;;;;5.03;3.90;;;;;;;27.16;34.69;100185.91;1896294;101;25736;-81
2021/06/15 18:02:12;;;;;;;8.70;4.10;;;;;;;27.14;34.99;100183.80;1836915;104;26474;-85
2021/06/15 18:11:42;;;;;;;4.65;4.00;;;;;;;27.11;35.06;100170.52;1872820;103;25888;-78
2021/06/15 18:15:37;;;;;;;;;;;;;;;27.05;35.24;100168.14;1894151;102;25897;-86
2021/06/15 18:19:35;;;;;;;6.10;3.60;;;;;;;26.97;35.55;100163.16;1895507;102;25933;-79
2021/06/15 18:23:02;;;;;;;9.98;4.33;;;;;;;26.85;35.65;100173.95;1860288;103;25923;-78
2021/06/15 18:26:43;;;;;;;9.08;4.97;;;;;;;26.80;35.79;100165.77;1885676;103;25872;-82
2021/06/15 18:30:22;;;;;;;9.13;5.53;;;;;;;26.73;35.87;100169.64;1807392;106;25833;-83
2021/06/15 18:33:53;;;;;;;13.40;5.62;;;;;;;26.71;36.09;100173.74;1835501;104;26048;-80
2021/06/15 18:37:41;;;;;;;8.15;5.40;;;;;;;26.69;36.23;100162.71;1948710;100;26072;-80
2021/06/15 18:41:24;;;;;;;11.15;5.50;;;;;;;26.59;36.26;100171.18;1934676;101;25826;-80
2021/06/15 18:48:25;;;;;;;7.00;5.70;;;;;;;26.38;36.65;100163.61;2024478;97;25871;-80
2021/06/15 18:51:47;;;;;;;7.87;5.05;;;;;;;26.36;36.75;100170.85;2002597;97;26582;-78
2021/06/15 18:55:18;;;;;;;10.68;5.67;;;;;;;26.34;36.66;100174.52;1963916;98;25994;-81
2021/06/15 18:58:45;;;;;;;8.90;5.60;;;;;;;26.28;36.85;100171.64;1932901;100;25872;-77
2021/06/15 19:02:08;;;;;;;7.72;4.87;;;;;;;26.25;36.81;100177.13;2004331;97;26361;-84
2021/06/15 19:05:33;;;;;;;5.55;4.67;;;;;;;26.26;36.93;100175.34;1999903;97;25965;-80
2021/06/15 19:09:08;;;;;;;;;;;;;;;;;;;;;
2021/06/15 19:12:18;;;;;;;7.17;5.53;;;;;;;26.26;36.92;100179.36;2056478;94;25925;-81
2021/06/15 19:16:04;;;;;;;7.83;4.83;;;;;;;26.22;37.05;100185.27;2026418;94;25802;-81
2021/06/15 19:19:28;;;;;;;8.88;5.50;;;;;;;26.23;37.22;100186.17;2005976;97;25990;-82
2021/06/15 19:23:40;;;;;;;;;;;;;;;;;;;;;
2021/06/15 19:27:12;;;;;;;7.40;4.92;;;;;;;26.17;37.40;100187.30;1997124;97;25865;-80
2021/06/15 19:30:58;;;;;;;7.05;4.65;;;;;;;26.13;37.67;100194.58;2009530;96;25782;-84
2021/06/15 19:34:45;;;;;;;8.10;4.80;;;;;;;26.01;37.83;100197.77;2005422;96;25985;-79
2021/06/15 19:41:53;;;;;;;12.40;7.60;;;;;;;25.78;38.58;100200.05;1991509;97;25715;-85
2021/06/15 19:45:51;;;;;;;;;;;;;;;;;;;;;
2021/06/15 19:49:22;;;;;;;14.95;6.22;;;;;;;25.70;39.13;100216.01;1950438;99;26033;-82
2021/06/15 19:52:58;;;;;;;7.55;4.92;;;;;;;25.53;39.68;100214.03;1959951;97;25795;-80
2021/06/15 19:56:20;;;;;;;9.35;5.22;;;;;;;25.42;39.99;100206.00;1980112;97;25915;-81
2021/06/15 19:59:53;;;;;;;13.45;5.80;;;;;;;25.37;40.27;100201.77;1988833;97;25715;-81
2021/06/15 20:03:14;;;;;;;11.35;6.00;;;;;;;25.27;40.19;100211.94;1965351;99;25840;-80
2021/06/15 20:06:49;;;;;;;10.85;5.92;;;;;;;25.19;40.46;100206.05;2014339;97;25840;-80
2021/06/15 20:10:34;;;;;;;14.23;8.30;;;;;;;25.16;40.88;100215.50;1937675;100;25938;-80
2021/06/15 20:14:06;;;;;;;10.43;6.00;;;;;;;25.11;40.96;100217.03;1964963;99;26754;-78
2021/06/15 20:17:47;;;;;;;9.10;6.65;;;;;;;25.12;41.18;100225.43;1973541;98;25903;-80
2021/06/15 20:21:24;;;;;;;14.47;5.67;;;;;;;25.07;41.58;100222.48;1974570;98;25823;-80
2021/06/15 20:24:55;;;;;;;9.18;6.10;;;;;;;25.04;41.71;100230.61;1962448;99;25837;-81
2021/06/15 20:28:16;;;;;;;8.40;6.08;;;;;;;24.98;42.14;100233.93;1966243;99;25982;-80
2021/06/15 20:32:05;;;;;;;9.13;6.72;;;;;;;24.90;42.06;100225.80;2043453;96;26340;-79
2021/06/15 20:35:40;;;;;;;8.27;6.53;;;;;;;24.80;42.34;100225.27;2028898;95;25365;-79
2021/06/15 20:39:08;;;;;;;9.90;6.72;;;;;;;24.73;42.62;100223.77;2104948;91;26254;-78
2021/06/15 20:42:36;;;;;;;8.55;6.58;;;;;;;24.76;42.75;100229.46;2280650;84;26187;-78
2021/06/15 20:46:14;;;;;;;9.97;6.07;;;;;;;24.79;43.01;100217.34;2364660;82;25543;-81
2021/06/15 20:49:57;;;;;;;11.10;6.42;;;;;;;24.71;42.65;100225.18;2384975;82;25768;-79
2021/06/15 20:53:18;;;;;;;15.05;6.58;;;;;;;24.68;42.76;100223.09;2400423;82;25835;-79
2021/06/15 20:56:46;;;;;;;10.60;6.75;;;;;;;24.68;42.75;100225.28;2402181;81;25713;-76
2021/06/15 21:00:22;;;;;;;17.25;7.20;;;;;;;24.67;42.83;100225.33;2410880;80;25805;-77
2021/06/15 21:03:49;;;;;;;11.78;6.72;;;;;;;24.57;43.00;100224.83;2407864;80;25813;-84
2021/06/15 21:07:14;;;;;;;22.37;6.50;;;;;;;24.36;43.13;100224.22;2382683;82;25408;-81
2021/06/15 21:11:02;;;;;;;29.27;6.97;;;;;;;24.21;43.26;100223.84;2385271;81;25395;-80
2021/06/15 21:14:59;;;;;;;34.08;7.58;;;;;;;24.16;43.42;100227.11;2370226;81;25798;-80
2021/06/15 21:18:43;;;;;;;33.23;8.83;;;;;;;24.12;43.53;100225.48;2230451;85;25783;-80
2021/06/15 21:22:22;;;;;;;38.33;8.28;;;;;;;24.02;43.60;100224.06;2202847;87;25491;-80
2021/06/15 21:26:01;;;;;;;31.62;8.23;;;;;;;24.06;43.91;100229.69;2201879;87;25897;-79
2021/06/15 21:29:27;;;;;;;34.20;9.50;;;;;;;24.03;44.00;100231.16;2205924;87;25818;-80
2021/06/15 21:33:03;;;;;;;38.45;8.20;;;;;;;24.16;44.06;100228.44;2169230;87;25697;-79
2021/06/15 21:37:07;;;;;;;;;;;;;;;;;;;;;
2021/06/15 21:40:16;;;;;;;32.73;11.03;;;;;;;24.01;44.45;100219.20;2235153;86;25705;-79
2021/06/15 21:44:04;;;;;;;32.75;9.73;;;;;;;23.91;44.49;100228.89;2239154;87;25640;-79
2021/06/15 21:47:31;;;;;;;29.20;9.70;;;;;;;23.90;44.90;100239.15;2206743;87;26016;-79
2021/06/15 21:50:59;;;;;;;39.80;10.10;;;;;;;23.96;45.24;100233.59;2228110;87;25929;-78
2021/06/15 21:54:26;;;;;;;31.30;9.98;;;;;;;23.97;45.33;100243.34;2216322;87;25855;-80
2021/06/15 21:57:54;;;;;;;30.52;10.58;;;;;;;23.95;45.42;100248.70;2134760;90;25827;-80
2021/06/15 22:01:27;;;;;;;31.45;9.85;;;;;;;23.91;45.31;100241.74;2124563;91;26211;-80
2021/06/15 22:04:59;;;;;;;24.67;8.80;;;;;;;23.83;45.23;100235.81;2127763;90;25923;-80
2021/06/15 22:08:34;;;;;;;21.27;7.47;;;;;;;23.85;45.33;100245.07;2027807;95;25817;-79
2021/06/15 22:12:00;;;;;;;22.82;9.28;;;;;;;23.77;45.38;100241.34;2047128;93;25881;-79
2021/06/15 22:15:30;;;;;;;24.95;8.75;;;;;;;23.79;45.71;100239.48;2121940;88;25492;-80
2021/06/15 22:19:28;;;;;;;30.45;7.95;;;;;;;23.79;46.00;100242.14;2066177;95;25874;-79
2021/06/15 22:23:08;;;;;;;32.05;8.00;;;;;;;23.72;46.49;100242.80;2068953;93;25761;-79
2021/06/15 22:26:32;;;;;;;22.95;8.13;;;;;;;23.58;46.65;100239.23;2021584;95;25770;-79
2021/06/15 22:29:57;;;;;;;25.23;8.50;;;;;;;23.55;46.68;100245.98;2022797;95;25854;-80
2021/06/15 22:33:20;;;;;;;20.92;9.33;;;;;;;23.51;46.92;100249.66;2038163;95;25731;-80
2021/06/15 22:36:56;;;;;;;18.52;7.97;;;;;;;23.51;47.10;100250.99;2014364;96;25959;-80
2021/06/15 22:40:33;;;;;;;21.33;8.35;;;;;;;23.39;47.36;100253.16;2063314;94;25439;-80
2021/06/15 22:44:16;;;;;;;29.80;8.20;;;;;;;23.36;47.46;100255.48;2100721;91;25763;-79